Time;durP1;ratioP1;P1;durP2;ratioP2;P2;SDS_P1;SDS_P2;PMS_P1;PMS_P2;Temp;Humidity;BMP_temperature;BMP_pressure;BME280_temperature;BME280_humidity;BME280_pressure;Samples;Min_cycle;Max_cycle;Signal;HPM_P1;HPM_P2
2024/03/17 00:01:19;;;;;;;25.30;14.27;;;7.40;99.90;;;;;;4159736;28;20095;-56
2024/03/17 00:03:20;;;;;;;18.23;12.17;;;7.40;99.90;;;;;;4161087;28;20124;-55
2024/03/17 00:05:21;;;;;;;19.70;11.67;;;7.40;99.90;;;;;;4160463;28;20029;-56
2024/03/17 00:07:23;;;;;;;18.80;11.70;;;7.40;99.90;;;;;;4161631;28;20091;-56
2024/03/17 00:09:25;;;;;;;21.37;12.80;;;7.40;99.90;;;;;;4159915;28;20394;-53
2024/03/17 00:11:26;;;;;;;18.00;11.07;;;7.40;99.90;;;;;;4161430;28;20049;-56
2024/03/17 00:13:27;;;;;;;19.40;12.10;;;7.40;99.90;;;;;;4160181;28;20481;-54
2024/03/17 00:15:28;;;;;;;17.30;11.27;;;7.40;99.90;;;;;;4161389;28;20083;-53
2024/03/17 00:17:30;;;;;;;17.20;10.67;;;7.40;99.90;;;;;;4160406;28;20099;-57
2024/03/17 00:19:31;;;;;;;19.07;11.30;;;7.50;99.90;;;;;;4160790;28;21022;-56
2024/03/17 00:21:33;;;;;;;19.77;11.90;;;7.50;99.90;;;;;;4160146;28;20075;-53
2024/03/17 00:23:34;;;;;;;20.27;12.03;;;7.50;99.90;;;;;;4161439;28;20025;-53
2024/03/17 00:25:35;;;;;;;16.30;10.70;;;7.50;99.90;;;;;;4159541;28;20437;-57
2024/03/17 00:27:40;;;;;;;16.97;11.47;;;7.60;99.90;;;;;;4159407;28;20674;-53
2024/03/17 00:29:41;;;;;;;22.87;12.27;;;7.60;99.90;;;;;;4159388;28;20053;-57
2024/03/17 00:31:43;;;;;;;16.80;10.20;;;7.60;99.90;;;;;;4159376;28;20489;-56
2024/03/17 00:33:44;;;;;;;20.67;12.20;;;7.60;99.90;;;;;;4160629;28;20033;-56
2024/03/17 00:35:45;;;;;;;24.60;16.10;;;7.60;99.90;;;;;;4159488;28;20045;-55
2024/03/17 00:37:50;;;;;;;23.63;13.30;;;7.60;99.90;;;;;;4160085;28;20543;-55
2024/03/17 00:39:52;;;;;;;24.63;13.77;;;7.60;99.90;;;;;;4160011;28;20033;-56
2024/03/17 00:41:53;;;;;;;19.87;12.87;;;7.60;99.90;;;;;;4160318;28;20034;-55
2024/03/17 00:43:54;;;;;;;20.63;12.20;;;7.60;99.90;;;;;;4160122;28;20552;-52
2024/03/17 00:45:56;;;;;;;17.20;10.90;;;7.60;99.90;;;;;;4159763;28;20441;-57
2024/03/17 00:47:57;;;;;;;16.87;10.40;;;7.60;99.90;;;;;;4159917;28;20025;-55
2024/03/17 00:49:58;;;;;;;16.57;11.10;;;7.60;99.90;;;;;;4161107;28;20048;-55
2024/03/17 00:51:59;;;;;;;26.73;15.67;;;7.60;99.90;;;;;;4158987;28;20034;-54
2024/03/17 00:54:01;;;;;;;27.43;16.43;;;7.60;99.90;;;;;;4158964;28;20071;-57
2024/03/17 00:56:02;;;;;;;28.00;16.50;;;7.40;99.90;;;;;;4158824;28;20037;-56
2024/03/17 00:58:03;;;;;;;28.57;17.30;;;7.30;99.90;;;;;;4159643;28;20053;-55
2024/03/17 01:00:06;;;;;;;31.33;17.83;;;7.30;99.90;;;;;;4159419;28;20034;-57
2024/03/17 01:02:07;;;;;;;33.47;19.40;;;7.40;99.90;;;;;;4158707;28;20037;-55
2024/03/17 01:04:08;;;;;;;33.93;18.47;;;7.40;99.90;;;;;;4159569;28;20119;-50
2024/03/17 01:06:09;;;;;;;27.30;16.93;;;7.30;99.90;;;;;;4158994;28;20823;-56
2024/03/17 01:08:11;;;;;;;22.83;14.10;;;7.40;99.90;;;;;;4144888;28;20030;-55
2024/03/17 01:10:12;;;;;;;22.73;13.60;;;7.40;99.90;;;;;;4143867;28;20033;-52
2024/03/17 01:12:14;;;;;;;32.53;18.20;;;7.40;99.90;;;;;;4160274;28;20439;-57
2024/03/17 01:14:15;;;;;;;29.40;18.93;;;7.40;99.90;;;;;;4159757;28;20118;-57
2024/03/17 01:16:16;;;;;;;30.63;18.80;;;7.40;99.90;;;;;;4160816;28;20389;-58
2024/03/17 01:18:18;;;;;;;30.53;18.40;;;7.30;99.90;;;;;;4159231;28;20584;-56
2024/03/17 01:20:19;;;;;;;32.60;19.43;;;7.20;99.90;;;;;;4161217;28;20058;-55
2024/03/17 01:22:21;;;;;;;31.97;20.00;;;7.20;99.90;;;;;;4159627;28;20045;-54
2024/03/17 01:24:22;;;;;;;33.40;20.53;;;7.10;99.90;;;;;;4161241;28;20486;-57
2024/03/17 01:26:24;;;;;;;33.03;20.50;;;7.10;99.90;;;;;;4159751;28;20429;-55
2024/03/17 01:28:26;;;;;;;30.23;18.30;;;7.10;99.90;;;;;;4160646;28;20095;-58
2024/03/17 01:30:28;;;;;;;31.47;18.33;;;7.10;99.90;;;;;;4159771;28;20501;-53
2024/03/17 01:32:29;;;;;;;29.93;17.63;;;7.10;99.90;;;;;;4160533;28;20033;-51
2024/03/17 01:34:31;;;;;;;32.93;19.87;;;7.10;99.90;;;;;;4160733;28;20033;-57
2024/03/17 01:36:32;;;;;;;30.67;18.90;;;7.10;99.90;;;;;;4160051;28;20107;-57
2024/03/17 01:38:33;;;;;;;31.93;18.93;;;7.10;99.90;;;;;;4160496;28;20446;-58
2024/03/17 01:40:34;;;;;;;35.23;19.00;;;7.00;99.90;;;;;;4159772;28;20041;-58
2024/03/17 01:42:37;;;;;;;36.63;19.93;;;7.10;99.90;;;;;;4160490;28;20100;-54
2024/03/17 01:44:39;;;;;;;33.80;19.03;;;7.10;99.90;;;;;;4159814;28;20046;-53
2024/03/17 01:46:40;;;;;;;33.33;19.17;;;7.10;99.90;;;;;;4160248;28;20064;-56
2024/03/17 01:48:42;;;;;;;34.37;19.80;;;7.10;99.90;;;;;;4159489;28;20115;-55
2024/03/17 01:50:45;;;;;;;33.67;19.27;;;7.10;99.90;;;;;;4160179;28;20042;-54
2024/03/17 01:52:47;;;;;;;28.93;16.43;;;7.20;99.90;;;;;;4159051;28;20054;-54
2024/03/17 01:54:49;;;;;;;29.13;17.10;;;7.20;99.90;;;;;;4160500;28;20045;-54
2024/03/17 01:56:50;;;;;;;31.53;17.40;;;7.30;99.90;;;;;;4159541;28;20108;-55
2024/03/17 01:58:51;;;;;;;28.27;17.17;;;7.30;99.90;;;;;;4163464;28;20088;-55
2024/03/17 02:00:53;;;;;;;28.73;17.20;;;7.30;99.90;;;;;;4162998;28;20087;-56
2024/03/17 02:02:54;;;;;;;28.97;15.77;;;7.40;99.90;;;;;;4163233;28;20034;-55
2024/03/17 02:04:55;;;;;;;24.80;16.23;;;7.40;99.90;;;;;;4162741;28;20528;-57
2024/03/17 02:06:56;;;;;;;26.63;15.33;;;7.50;99.90;;;;;;4162497;28;20115;-58
2024/03/17 02:08:58;;;;;;;27.17;15.67;;;7.50;99.90;;;;;;4163289;28;20096;-52
2024/03/17 02:10:59;;;;;;;26.37;15.93;;;7.50;99.90;;;;;;4161576;28;20080;-53
2024/03/17 02:13:04;;;;;;;25.77;14.93;;;7.50;99.90;;;;;;4163647;28;20119;-56
2024/03/17 02:15:06;;;;;;;26.50;16.60;;;7.50;99.90;;;;;;4162693;28;20076;-56
2024/03/17 02:17:07;;;;;;;28.57;17.37;;;7.50;99.90;;;;;;4163586;28;20496;-58
2024/03/17 02:19:08;;;;;;;31.43;18.60;;;7.40;99.90;;;;;;4162217;28;20095;-57
2024/03/17 02:21:09;;;;;;;33.37;18.47;;;7.30;99.90;;;;;;4163762;28;20355;-57
2024/03/17 02:23:11;;;;;;;29.53;18.10;;;7.20;99.90;;;;;;4162095;28;20769;-53
2024/03/17 02:25:12;;;;;;;30.13;18.83;;;7.20;99.90;;;;;;4163063;28;20469;-58
2024/03/17 02:27:14;;;;;;;30.67;18.43;;;7.10;99.90;;;;;;4162247;28;20111;-53
2024/03/17 02:29:15;;;;;;;30.67;17.77;;;7.00;99.90;;;;;;4163349;28;20045;-53
2024/03/17 02:31:17;;;;;;;31.57;18.13;;;7.10;99.90;;;;;;4161854;28;20046;-58
2024/03/17 02:33:19;;;;;;;30.20;16.90;;;7.10;99.90;;;;;;4162295;28;20087;-52
2024/03/17 02:35:26;;;;;;;26.83;15.97;;;7.00;99.90;;;;;;4162872;28;20025;-56
2024/03/17 02:37:28;;;;;;;26.87;17.40;;;7.00;99.90;;;;;;4161690;28;20107;-55
2024/03/17 02:39:33;;;;;;;31.10;17.70;;;7.00;99.90;;;;;;4162855;28;20045;-53
2024/03/17 02:41:35;;;;;;;28.53;17.30;;;7.00;99.90;;;;;;4162221;28;20050;-55
2024/03/17 02:43:37;;;;;;;28.03;17.33;;;7.00;99.90;;;;;;4163339;28;20390;-58
2024/03/17 02:45:38;;;;;;;29.60;17.43;;;6.90;99.90;;;;;;4162171;28;20072;-54
2024/03/17 02:47:39;;;;;;;26.93;15.47;;;6.90;99.90;;;;;;4163356;28;20026;-55
2024/03/17 02:49:43;;;;;;;26.83;15.80;;;6.90;99.90;;;;;;4143119;28;20072;-55
2024/03/17 02:51:44;;;;;;;33.20;17.63;;;6.80;99.90;;;;;;4162580;28;20095;-54
2024/03/17 02:53:47;;;;;;;29.00;16.73;;;6.80;99.90;;;;;;4162007;28;20045;-57
2024/03/17 02:55:48;;;;;;;25.17;15.53;;;6.80;99.90;;;;;;4162376;28;20045;-53
2024/03/17 02:57:49;;;;;;;23.13;14.90;;;6.80;99.90;;;;;;4160779;28;20159;-56
2024/03/17 02:59:51;;;;;;;26.13;15.30;;;6.80;99.90;;;;;;4162807;28;20049;-57
2024/03/17 03:01:54;;;;;;;26.57;15.93;;;6.80;99.90;;;;;;4161781;28;20045;-56
2024/03/17 03:03:55;;;;;;;30.87;18.33;;;6.80;99.90;;;;;;4162337;28;20083;-54
2024/03/17 03:05:58;;;;;;;29.30;17.20;;;6.80;99.90;;;;;;4161101;28;20037;-58
2024/03/17 03:07:59;;;;;;;29.97;17.70;;;6.80;99.90;;;;;;4161604;28;20099;-54
2024/03/17 03:10:00;;;;;;;40.47;21.00;;;6.80;99.90;;;;;;4160730;28;20068;-54
2024/03/17 03:12:04;;;;;;;32.90;20.10;;;6.80;99.90;;;;;;4162471;28;20638;-54
2024/03/17 03:14:06;;;;;;;33.60;20.10;;;6.70;99.90;;;;;;4144837;28;20057;-53
2024/03/17 03:16:13;;;;;;;30.97;19.00;;;6.60;99.90;;;;;;4161173;28;20769;-50
2024/03/17 03:18:15;;;;;;;32.67;20.10;;;6.60;99.90;;;;;;4162380;28;20025;-53
2024/03/17 03:20:17;;;;;;;40.80;20.17;;;6.50;99.90;;;;;;4161817;28;20030;-55
2024/03/17 03:22:21;;;;;;;32.77;18.83;;;6.50;99.90;;;;;;4162512;28;20026;-57
2024/03/17 03:24:22;;;;;;;29.77;19.63;;;6.50;99.90;;;;;;4161498;28;20087;-50
2024/03/17 03:26:24;;;;;;;28.97;18.20;;;6.50;99.90;;;;;;4161289;28;20041;-54
2024/03/17 03:28:26;;;;;;;31.43;18.53;;;6.40;99.90;;;;;;4160809;28;20099;-55
2024/03/17 03:30:27;;;;;;;34.17;18.30;;;6.40;99.90;;;;;;4162143;28;20034;-56
2024/03/17 03:32:28;;;;;;;30.10;18.13;;;6.40;99.90;;;;;;4160591;28;20478;-52
2024/03/17 03:34:30;;;;;;;26.97;16.90;;;6.40;99.90;;;;;;4161645;28;20045;-53
2024/03/17 03:36:31;;;;;;;27.20;17.20;;;6.50;99.90;;;;;;4160586;28;20045;-54
2024/03/17 03:38:33;;;;;;;29.77;18.47;;;6.50;99.90;;;;;;4162294;28;20080;-56
2024/03/17 03:40:34;;;;;;;26.13;16.67;;;6.60;99.90;;;;;;4160964;28;20108;-54
2024/03/17 03:42:35;;;;;;;27.57;17.30;;;6.60;99.90;;;;;;4161055;28;20107;-55
2024/03/17 03:44:38;;;;;;;30.47;17.77;;;6.60;99.90;;;;;;4161363;28;20087;-57
2024/03/17 03:46:40;;;;;;;31.23;17.83;;;6.60;99.90;;;;;;4160635;28;20420;-55
2024/03/17 03:48:41;;;;;;;29.47;18.33;;;6.70;99.90;;;;;;4160753;28;20164;-57
2024/03/17 03:50:43;;;;;;;28.70;18.50;;;6.70;99.90;;;;;;4160327;28;20099;-57
2024/03/17 03:52:45;;;;;;;28.63;17.07;;;6.70;99.90;;;;;;4161344;28;20087;-53
2024/03/17 03:54:46;;;;;;;28.13;17.70;;;6.70;99.90;;;;;;4160799;28;20444;-56
2024/03/17 03:56:47;;;;;;;28.70;17.87;;;6.70;99.90;;;;;;4143789;28;20466;-58
2024/03/17 03:58:50;;;;;;;30.70;18.27;;;6.70;99.90;;;;;;4160897;28;20493;-53
2024/03/17 04:00:51;;;;;;;29.40;18.13;;;6.80;99.90;;;;;;4161792;28;20485;-54
2024/03/17 04:02:52;;;;;;;26.97;17.80;;;6.80;99.90;;;;;;4159756;28;20041;-60
2024/03/17 04:04:54;;;;;;;30.83;17.90;;;6.80;99.90;;;;;;4161067;28;20037;-53
2024/03/17 04:06:55;;;;;;;29.87;17.50;;;6.80;99.90;;;;;;4160093;28;20392;-55
2024/03/17 04:08:57;;;;;;;27.73;18.43;;;6.90;99.90;;;;;;4161319;28;20730;-55
2024/03/17 04:10:58;;;;;;;29.17;17.43;;;6.90;99.90;;;;;;4159895;28;20033;-55
2024/03/17 04:12:59;;;;;;;30.13;18.17;;;6.90;99.90;;;;;;4161095;28;20037;-55
2024/03/17 04:15:01;;;;;;;30.23;17.93;;;6.90;99.90;;;;;;4160984;28;20014;-62
2024/03/17 04:17:03;;;;;;;28.90;16.73;;;6.90;99.90;;;;;;4161442;28;20041;-57
2024/03/17 04:19:04;;;;;;;28.90;16.83;;;7.00;99.90;;;;;;4160985;28;20041;-52
2024/03/17 04:21:06;;;;;;;28.43;17.40;;;7.00;99.90;;;;;;4159974;28;20079;-57
2024/03/17 04:23:08;;;;;;;29.43;17.77;;;6.90;99.90;;;;;;4160314;28;20049;-55
2024/03/17 04:25:11;;;;;;;28.97;16.70;;;7.00;99.90;;;;;;4159549;28;20041;-53
2024/03/17 04:27:13;;;;;;;33.30;18.90;;;6.90;99.90;;;;;;4160749;28;20045;-55
2024/03/17 04:29:14;;;;;;;29.67;18.17;;;6.90;99.90;;;;;;4160565;28;20033;-51
2024/03/17 04:31:16;;;;;;;29.73;18.17;;;6.90;99.90;;;;;;4161487;28;20025;-54
2024/03/17 04:33:17;;;;;;;32.20;17.43;;;6.80;99.90;;;;;;4159668;28;20049;-54
2024/03/17 04:35:18;;;;;;;33.07;17.73;;;6.80;99.90;;;;;;4161376;28;20373;-54
2024/03/17 04:37:20;;;;;;;30.37;18.30;;;6.70;99.90;;;;;;4160419;28;20026;-56
2024/03/17 04:39:21;;;;;;;29.50;18.77;;;6.70;99.90;;;;;;4161213;28;20042;-53
2024/03/17 04:41:23;;;;;;;33.63;19.03;;;6.70;99.90;;;;;;4159091;28;20038;-54
2024/03/17 04:43:24;;;;;;;30.20;18.43;;;6.70;99.90;;;;;;4161443;28;20033;-56
2024/03/17 04:45:26;;;;;;;29.87;18.73;;;6.70;99.90;;;;;;4160344;28;20382;-56
2024/03/17 04:47:27;;;;;;;31.43;19.53;;;6.70;99.90;;;;;;4160264;28;20896;-56
2024/03/17 04:49:28;;;;;;;27.47;17.53;;;6.70;99.90;;;;;;4159927;28;20094;-56
2024/03/17 04:51:29;;;;;;;27.83;17.43;;;6.70;99.90;;;;;;4159976;28;20107;-56
2024/03/17 04:53:31;;;;;;;27.50;17.17;;;6.70;99.90;;;;;;4159642;28;20092;-53
2024/03/17 04:55:32;;;;;;;31.40;19.00;;;6.80;99.90;;;;;;4159146;28;20045;-56
2024/03/17 04:57:34;;;;;;;27.27;16.77;;;6.90;99.90;;;;;;4161063;28;20458;-56
2024/03/17 04:59:35;;;;;;;31.70;17.63;;;6.90;99.90;;;;;;4160660;28;20103;-54
2024/03/17 05:01:37;;;;;;;27.23;17.57;;;6.90;99.90;;;;;;4160473;28;20062;-54
2024/03/17 05:03:39;;;;;;;24.37;16.27;;;6.90;99.90;;;;;;4159464;28;20083;-52
2024/03/17 05:05:40;;;;;;;25.03;17.23;;;6.80;99.90;;;;;;4160474;28;20037;-58
2024/03/17 05:07:42;;;;;;;32.10;17.40;;;6.90;99.90;;;;;;4160143;28;20442;-56
2024/03/17 05:09:46;;;;;;;30.13;17.37;;;6.90;99.90;;;;;;4161188;28;20415;-53
2024/03/17 05:11:47;;;;;;;28.50;16.53;;;6.90;99.90;;;;;;4159163;28;20057;-55
2024/03/17 05:13:48;;;;;;;31.27;18.77;;;7.00;99.90;;;;;;4143139;28;20115;-54
2024/03/17 05:15:50;;;;;;;31.83;17.70;;;7.00;99.90;;;;;;4159593;28;20042;-53
2024/03/17 05:17:51;;;;;;;30.33;18.50;;;7.00;99.90;;;;;;4160119;28;20118;-56
2024/03/17 05:19:52;;;;;;;34.53;17.53;;;7.10;99.90;;;;;;4159982;28;20034;-56
2024/03/17 05:21:53;;;;;;;29.90;19.07;;;7.10;99.90;;;;;;4159613;28;20037;-60
2024/03/17 05:23:55;;;;;;;30.20;17.60;;;7.20;99.90;;;;;;4160530;28;20067;-51
2024/03/17 05:25:57;;;;;;;30.43;18.03;;;7.30;99.90;;;;;;4159345;28;20045;-52
2024/03/17 05:27:58;;;;;;;30.07;19.03;;;7.40;99.90;;;;;;4159964;28;20045;-57
2024/03/17 05:29:59;;;;;;;29.27;19.17;;;7.40;99.90;;;;;;4159769;28;20053;-56
2024/03/17 05:32:02;;;;;;;29.27;18.77;;;7.50;99.90;;;;;;4160212;28;20091;-56
2024/03/17 05:34:03;;;;;;;32.30;18.97;;;7.50;99.90;;;;;;4162691;28;20111;-54
2024/03/17 05:36:05;;;;;;;28.70;18.17;;;7.60;99.90;;;;;;4164413;28;20548;-52
2024/03/17 05:38:10;;;;;;;32.60;20.10;;;7.70;99.90;;;;;;4163071;28;20545;-55
2024/03/17 05:40:14;;;;;;;34.83;18.57;;;7.70;99.90;;;;;;4163222;28;20045;-56
2024/03/17 05:42:16;;;;;;;29.30;19.50;;;7.70;99.90;;;;;;4162133;28;20092;-55
2024/03/17 05:44:17;;;;;;;34.10;20.50;;;7.80;99.90;;;;;;4164076;28;20072;-51
2024/03/17 05:46:19;;;;;;;36.37;21.60;;;7.80;99.90;;;;;;4161919;28;20563;-54
2024/03/17 05:48:20;;;;;;;28.70;19.03;;;7.90;99.90;;;;;;4164012;28;20034;-56
2024/03/17 05:50:22;;;;;;;37.40;21.73;;;7.90;99.90;;;;;;4162952;28;20022;-57
2024/03/17 05:52:24;;;;;;;36.87;22.70;;;7.90;99.90;;;;;;4163004;28;20099;-55
2024/03/17 05:54:25;;;;;;;36.00;20.47;;;8.00;99.90;;;;;;4162412;28;20076;-54
2024/03/17 05:56:27;;;;;;;32.57;20.67;;;7.90;99.90;;;;;;4162415;28;20060;-57
2024/03/17 05:58:29;;;;;;;36.93;21.17;;;7.80;99.90;;;;;;4163322;28;20103;-56
2024/03/17 06:00:30;;;;;;;35.13;20.77;;;7.70;99.90;;;;;;4163119;28;20163;-53
2024/03/17 06:02:32;;;;;;;36.37;20.73;;;7.60;99.90;;;;;;4163354;28;20075;-56
2024/03/17 06:04:33;;;;;;;31.20;20.60;;;7.50;99.90;;;;;;4162602;28;20041;-54
2024/03/17 06:06:35;;;;;;;30.43;19.73;;;7.40;99.90;;;;;;4163705;28;20080;-53
2024/03/17 06:08:37;;;;;;;32.57;20.07;;;7.40;99.90;;;;;;4161918;28;20129;-54
2024/03/17 06:10:46;;;;;;;35.50;21.70;;;7.50;99.90;;;;;;4163177;28;20807;-51
2024/03/17 06:12:47;;;;;;;34.87;22.97;;;7.40;99.90;;;;;;4162434;28;20030;-55
2024/03/17 06:14:49;;;;;;;33.50;20.47;;;7.40;99.90;;;;;;4162885;28;20042;-55
2024/03/17 06:16:50;;;;;;;38.10;21.00;;;7.40;99.90;;;;;;4162636;28;20034;-56
2024/03/17 06:18:51;;;;;;;35.17;22.20;;;7.40;99.90;;;;;;4163485;28;20320;-54
2024/03/17 06:20:53;;;;;;;36.20;23.30;;;7.40;99.90;;;;;;4162281;28;20083;-51
2024/03/17 06:22:55;;;;;;;34.80;22.30;;;7.40;99.90;;;;;;4163423;28;20068;-54
2024/03/17 06:24:57;;;;;;;37.37;21.20;;;7.30;99.90;;;;;;4161607;28;20037;-56
2024/03/17 06:26:58;;;;;;;35.70;21.87;;;7.40;99.90;;;;;;4161945;28;20138;-55
2024/03/17 06:29:03;;;;;;;31.93;22.13;;;7.40;99.90;;;;;;4162101;28;20432;-59
2024/03/17 06:31:07;;;;;;;39.20;22.57;;;7.40;99.90;;;;;;4161884;28;20091;-57
2024/03/17 06:33:12;;;;;;;36.73;21.87;;;7.50;99.90;;;;;;4161930;28;20456;-56
2024/03/17 06:35:25;;;;;;;36.20;22.70;;;7.50;99.90;;;;;;4162328;28;20104;-56
2024/03/17 06:37:26;;;;;;;36.00;22.20;;;7.60;99.90;;;;;;4161581;28;20099;-55
2024/03/17 06:39:27;;;;;;;33.37;20.93;;;7.70;99.90;;;;;;4161302;28;20045;-55
2024/03/17 06:41:29;;;;;;;38.53;22.23;;;7.70;99.90;;;;;;4162002;28;20034;-56
2024/03/17 06:43:30;;;;;;;36.63;23.07;;;7.80;99.90;;;;;;4161771;28;20060;-55
2024/03/17 06:45:32;;;;;;;37.50;22.70;;;7.80;99.90;;;;;;4162834;28;20076;-55
2024/03/17 06:47:33;;;;;;;37.83;23.63;;;7.80;99.90;;;;;;4161140;28;20029;-57
2024/03/17 06:49:35;;;;;;;43.37;28.03;;;7.90;99.90;;;;;;4162037;28;20163;-55
2024/03/17 06:51:36;;;;;;;39.90;25.37;;;7.90;99.90;;;;;;4160573;28;20470;-53
2024/03/17 06:53:37;;;;;;;34.67;21.57;;;8.00;99.90;;;;;;4161622;28;20030;-56
2024/03/17 06:55:38;;;;;;;36.37;23.17;;;8.00;99.90;;;;;;4161565;28;20030;-58
2024/03/17 06:57:46;;;;;;;38.37;23.03;;;8.00;99.90;;;;;;4161599;28;20461;-54
2024/03/17 06:59:48;;;;;;;33.90;22.60;;;8.00;99.90;;;;;;4161609;28;20033;-58
2024/03/17 07:01:50;;;;;;;31.33;21.03;;;8.00;99.90;;;;;;4161635;28;20046;-54
2024/03/17 07:03:51;;;;;;;30.67;21.43;;;8.00;99.90;;;;;;4159833;28;20079;-52
2024/03/17 07:05:54;;;;;;;30.97;21.77;;;8.00;99.90;;;;;;4161465;28;20099;-57
2024/03/17 07:07:55;;;;;;;32.07;21.63;;;8.00;99.90;;;;;;4161754;28;20030;-55
2024/03/17 07:09:57;;;;;;;39.27;21.87;;;8.10;99.90;;;;;;4161741;28;20033;-54
2024/03/17 07:11:58;;;;;;;31.97;21.47;;;8.00;99.90;;;;;;4161169;28;20584;-53
2024/03/17 07:13:59;;;;;;;35.40;21.50;;;8.00;99.90;;;;;;4161415;28;20695;-58
2024/03/17 07:16:01;;;;;;;31.57;21.17;;;8.00;99.90;;;;;;4161165;28;20037;-52
2024/03/17 07:18:03;;;;;;;33.23;21.47;;;8.10;99.90;;;;;;4160207;28;20045;-58
2024/03/17 07:20:08;;;;;;;33.67;19.97;;;8.10;99.90;;;;;;4161690;28;20437;-53
2024/03/17 07:22:10;;;;;;;31.90;21.00;;;8.20;99.90;;;;;;4160278;28;20490;-57
2024/03/17 07:24:11;;;;;;;32.07;20.63;;;8.30;99.90;;;;;;4161228;28;20301;-55
2024/03/17 07:26:14;;;;;;;33.63;21.13;;;8.30;99.90;;;;;;4159774;28;20832;-51
2024/03/17 07:28:15;;;;;;;31.43;21.10;;;8.30;99.90;;;;;;4161962;28;20524;-47
2024/03/17 07:30:16;;;;;;;36.13;21.23;;;8.40;99.90;;;;;;4160502;28;20042;-52
2024/03/17 07:32:18;;;;;;;28.73;19.63;;;8.40;99.90;;;;;;4155791;28;20046;-56
2024/03/17 07:34:19;;;;;;;33.23;20.40;;;8.40;99.90;;;;;;4144290;28;20022;-52
2024/03/17 07:36:21;;;;;;;32.50;19.17;;;8.40;99.90;;;;;;4145131;28;20034;-56
2024/03/17 07:38:26;;;;;;;36.57;21.33;;;8.40;99.90;;;;;;4144410;28;20034;-54
2024/03/17 07:40:27;;;;;;;29.47;20.20;;;8.50;99.90;;;;;;4144569;28;20046;-55
2024/03/17 07:42:28;;;;;;;37.63;22.33;;;8.50;99.90;;;;;;4144725;28;20076;-54
2024/03/17 07:44:33;;;;;;;34.90;22.07;;;8.60;99.90;;;;;;4144631;28;20092;-53
2024/03/17 07:46:35;;;;;;;33.50;21.77;;;8.70;99.90;;;;;;4144074;28;20115;-52
2024/03/17 07:48:37;;;;;;;32.40;18.40;;;8.80;99.90;;;;;;4143906;28;20105;-56
2024/03/17 07:50:38;;;;;;;34.53;21.03;;;8.90;99.90;;;;;;4159879;28;20083;-54
2024/03/17 07:52:39;;;;;;;29.17;20.57;;;9.10;99.90;;;;;;4159911;28;20029;-54
2024/03/17 07:54:41;;;;;;;29.10;19.03;;;9.20;99.90;;;;;;4160640;28;20102;-52
2024/03/17 07:56:42;;;;;;;38.10;21.47;;;9.30;99.90;;;;;;4158705;28;20049;-55
2024/03/17 07:58:44;;;;;;;25.27;17.23;;;9.30;99.90;;;;;;4160723;28;20049;-57
2024/03/17 08:00:45;;;;;;;26.77;18.23;;;9.40;99.90;;;;;;4159636;28;20450;-57
2024/03/17 08:02:47;;;;;;;32.87;19.33;;;9.40;99.90;;;;;;4161489;28;20032;-57
2024/03/17 08:04:48;;;;;;;30.17;19.27;;;9.40;99.90;;;;;;4160371;28;20544;-56
2024/03/17 08:06:49;;;;;;;26.87;16.50;;;9.40;99.90;;;;;;4161654;28;20091;-56
2024/03/17 08:08:50;;;;;;;33.17;17.57;;;9.40;99.90;;;;;;4160325;28;20087;-55
2024/03/17 08:10:52;;;;;;;25.37;16.53;;;9.40;99.90;;;;;;4160812;28;20114;-52
2024/03/17 08:12:53;;;;;;;27.47;16.10;;;9.30;99.90;;;;;;4159807;28;20486;-51
2024/03/17 08:14:54;;;;;;;25.73;17.10;;;9.30;99.90;;;;;;4161086;28;20429;-55
2024/03/17 08:16:56;;;;;;;23.40;16.27;;;9.30;99.90;;;;;;4159808;28;20433;-55
2024/03/17 08:18:57;;;;;;;22.80;14.27;;;9.30;99.90;;;;;;4160104;28;20064;-53
2024/03/17 08:21:06;;;;;;;24.67;15.10;;;9.30;99.90;;;;;;4161430;28;20563;-56
2024/03/17 08:23:07;;;;;;;20.57;13.97;;;9.40;99.90;;;;;;4158634;28;20046;-55
2024/03/17 08:25:09;;;;;;;23.13;15.27;;;9.40;99.90;;;;;;4161491;28;20083;-50
2024/03/17 08:27:10;;;;;;;22.50;15.07;;;9.40;99.90;;;;;;4160188;28;20444;-54
2024/03/17 08:29:12;;;;;;;24.10;14.80;;;9.40;99.90;;;;;;4157905;28;20037;-55
2024/03/17 08:31:15;;;;;;;19.20;13.67;;;9.40;99.90;;;;;;4159543;28;20049;-52
2024/03/17 08:33:16;;;;;;;21.83;13.47;;;9.40;99.90;;;;;;4160510;28;20054;-49
2024/03/17 08:35:17;;;;;;;19.30;13.93;;;9.40;99.90;;;;;;4159497;28;20099;-48
2024/03/17 08:37:19;;;;;;;21.03;13.03;;;9.30;99.90;;;;;;4154792;28;20732;-57
2024/03/17 08:39:21;;;;;;;20.90;13.07;;;9.40;99.90;;;;;;4143284;28;20053;-55
2024/03/17 08:41:22;;;;;;;25.03;14.23;;;9.50;99.90;;;;;;4153681;28;20037;-54
2024/03/17 08:43:24;;;;;;;23.80;13.80;;;9.50;99.90;;;;;;4160004;28;20079;-55
2024/03/17 08:45:25;;;;;;;23.00;13.97;;;9.50;99.90;;;;;;4159337;28;20099;-60
2024/03/17 08:47:26;;;;;;;21.53;14.87;;;9.50;99.90;;;;;;4159622;28;20073;-58
2024/03/17 08:49:28;;;;;;;21.17;14.03;;;9.50;99.90;;;;;;4160115;28;20470;-59
2024/03/17 08:51:29;;;;;;;20.53;13.87;;;9.50;99.90;;;;;;4159456;28;20069;-54
2024/03/17 08:53:31;;;;;;;24.37;14.30;;;9.60;99.90;;;;;;4159503;28;20112;-53
2024/03/17 08:55:32;;;;;;;19.33;12.37;;;9.70;99.90;;;;;;4161152;28;20029;-59
2024/03/17 08:57:34;;;;;;;17.60;11.83;;;9.80;99.90;;;;;;4159368;28;20045;-54
2024/03/17 08:59:35;;;;;;;22.43;12.70;;;9.80;99.90;;;;;;4161098;28;20033;-61
2024/03/17 09:01:36;;;;;;;17.47;12.43;;;9.80;99.90;;;;;;4159495;28;20049;-51
2024/03/17 09:03:39;;;;;;;19.13;12.03;;;9.90;99.90;;;;;;4159788;28;20123;-52
2024/03/17 09:05:43;;;;;;;19.13;12.90;;;9.90;99.90;;;;;;4159185;28;20445;-57
2024/03/17 09:07:44;;;;;;;17.47;11.33;;;10.00;99.90;;;;;;4159358;28;20429;-56
2024/03/17 09:09:49;;;;;;;23.70;13.53;;;10.10;99.90;;;;;;4158185;28;20423;-57
2024/03/17 09:11:51;;;;;;;21.97;14.03;;;10.20;99.90;;;;;;4158516;28;20041;-57
2024/03/17 09:13:52;;;;;;;18.70;13.10;;;10.20;99.90;;;;;;4158647;28;20041;-60
2024/03/17 09:16:01;;;;;;;20.03;12.80;;;10.30;99.90;;;;;;4159420;28;20059;-59
2024/03/17 09:18:03;;;;;;;19.63;13.63;;;10.30;99.90;;;;;;4157956;28;20085;-58
2024/03/17 09:20:05;;;;;;;18.27;11.73;;;10.50;99.90;;;;;;4157568;28;20460;-56
2024/03/17 09:22:07;;;;;;;21.07;12.47;;;10.80;99.90;;;;;;4159140;28;20049;-58
2024/03/17 09:24:08;;;;;;;19.93;12.50;;;11.20;99.90;;;;;;4159151;28;20049;-57
2024/03/17 09:26:16;;;;;;;19.30;11.77;;;11.40;99.90;;;;;;4157551;28;20034;-54
2024/03/17 09:28:17;;;;;;;18.80;12.17;;;11.70;99.90;;;;;;4159193;28;20029;-58
2024/03/17 09:30:19;;;;;;;17.60;12.27;;;11.80;99.90;;;;;;4158606;28;20116;-58
2024/03/17 09:32:20;;;;;;;16.70;11.47;;;12.10;99.90;;;;;;4157790;28;20029;-59
2024/03/17 09:34:22;;;;;;;16.27;11.40;;;12.20;99.90;;;;;;4158307;28;20548;-58
2024/03/17 09:36:23;;;;;;;17.17;10.77;;;12.20;99.90;;;;;;4156129;28;20136;-60
2024/03/17 09:38:24;;;;;;;14.77;11.23;;;12.10;99.90;;;;;;4160033;28;20030;-61
2024/03/17 09:40:26;;;;;;;18.47;11.73;;;12.00;99.90;;;;;;4157359;28;20045;-59
2024/03/17 09:42:27;;;;;;;16.37;10.60;;;12.00;99.90;;;;;;4159382;28;20107;-61
2024/03/17 09:44:30;;;;;;;16.27;10.83;;;12.10;99.90;;;;;;4157892;28;20037;-59
2024/03/17 09:46:33;;;;;;;15.13;10.73;;;12.20;99.90;;;;;;4159166;28;20441;-57
2024/03/17 09:48:35;;;;;;;15.03;10.50;;;12.10;99.90;;;;;;4158425;28;20045;-56
2024/03/17 09:50:37;;;;;;;11.23;8.33;;;12.10;99.90;;;;;;4159737;28;20061;-55
2024/03/17 09:52:40;;;;;;;14.13;10.07;;;12.10;99.90;;;;;;4158988;28;20457;-58
2024/03/17 09:54:41;;;;;;;15.30;9.70;;;12.10;99.90;;;;;;4158967;28;20037;-55
2024/03/17 09:56:42;;;;;;;10.23;8.13;;;12.20;99.90;;;;;;4157852;28;20505;-57
2024/03/17 09:58:43;;;;;;;7.10;5.33;;;12.40;99.90;;;;;;4159322;28;20452;-58
2024/03/17 10:00:45;;;;;;;12.40;8.30;;;12.50;99.90;;;;;;4160722;28;20513;-57
2024/03/17 10:02:47;;;;;;;10.20;6.77;;;12.60;99.90;;;;;;4159866;28;20034;-54
2024/03/17 10:04:49;;;;;;;9.60;7.27;;;12.50;99.90;;;;;;4158821;28;20119;-57
2024/03/17 10:06:50;;;;;;;7.67;5.63;;;12.50;99.90;;;;;;4159190;28;20383;-58
2024/03/17 10:08:53;;;;;;;7.73;5.93;;;12.50;99.90;;;;;;4142382;28;20038;-58
2024/03/17 10:10:55;;;;;;;9.37;6.10;;;12.60;99.90;;;;;;4158825;28;20033;-58
2024/03/17 10:12:57;;;;;;;7.90;5.47;;;12.60;99.90;;;;;;4160238;28;20034;-61
2024/03/17 10:15:04;;;;;;;7.27;5.80;;;12.70;99.90;;;;;;4158187;28;20116;-60
2024/03/17 10:17:07;;;;;;;7.23;5.37;;;12.80;99.90;;;;;;4159808;28;20030;-56
2024/03/17 10:19:25;;;;;;;8.63;5.30;;;12.80;99.90;;;;;;4141974;28;20088;-58
2024/03/17 10:21:30;;;;;;;11.20;6.00;;;12.80;99.90;;;;;;4162459;28;20057;-59
2024/03/17 10:23:31;;;;;;;8.33;6.00;;;12.70;99.90;;;;;;4161486;28;20030;-58
2024/03/17 10:25:35;;;;;;;9.97;6.00;;;12.90;99.90;;;;;;4163276;28;20021;-57